Waco's Hourly Summary for Saturday, July 7, 2018
Hour Temp
(f)
RH
(%)
Solar Rad.
(MJ/m2)
Rainfall
(in)
Wind
(mph)
7/7/2018 12:00 AM 76 76 0 0 1.91
7/7/2018 1:00 AM 76 76 0 0 4.33
7/7/2018 2:00 AM 76 79 0 0 1.81
7/7/2018 3:00 AM 75 80 0 0 0.41
7/7/2018 4:00 AM 74 83 0 0 0.08
7/7/2018 5:00 AM 75 82 0 0 2.35
7/7/2018 6:00 AM 74 84 0 0 1.85
7/7/2018 7:00 AM 74 86 0.03 0 1.68
7/7/2018 8:00 AM 75 83 0.31 0 3.56
7/7/2018 9:00 AM 78 72 0.86 0 3.88
7/7/2018 10:00 AM 81 67 1.55 0 4.23
7/7/2018 11:00 AM 84 59 1.96 0 3.74
7/7/2018 12:00 PM 86 59 1.69 0 5.06
7/7/2018 1:00 PM 87 55 2.27 0 5.56
7/7/2018 2:00 PM 90 48 2.88 0 6.16
7/7/2018 3:00 PM 91 45 2.09 0 7.72
7/7/2018 4:00 PM 85 47 0.68 0 5.46
7/7/2018 5:00 PM 81 69 0.74 0.1 3.6
7/7/2018 6:00 PM 84 59 1.23 0 4.29
7/7/2018 7:00 PM 83 61 1.22 0 4.63
7/7/2018 8:00 PM 82 61 0.22 0 1.88
7/7/2018 9:00 PM 81 59 0.02 0 1.1
7/7/2018 10:00 PM 79 60 0 0 1.05
7/7/2018 11:00 PM 76 70 0 0 1.18
Data Summary 80 67 17.75 0.10 3.23